sensor_id;sensor_type;location;lat;lon;timestamp;temperature;humidity
29917;DHT22;16786;49.466;11.068;2024-02-14T00:01:26;3.40;99.90
29917;DHT22;16786;49.466;11.068;2024-02-14T00:03:53;3.40;99.90
29917;DHT22;16786;49.466;11.068;2024-02-14T00:06:20;3.40;99.90
29917;DHT22;16786;49.466;11.068;2024-02-14T00:08:47;3.40;99.90
29917;DHT22;16786;49.466;11.068;2024-02-14T00:11:14;3.40;99.90
29917;DHT22;16786;49.466;11.068;2024-02-14T00:13:41;3.40;99.90
29917;DHT22;16786;49.466;11.068;2024-02-14T00:16:08;3.40;99.90
29917;DHT22;16786;49.466;11.068;2024-02-14T00:18:36;3.50;99.90
29917;DHT22;16786;49.466;11.068;2024-02-14T00:21:03;3.50;99.90
29917;DHT22;16786;49.466;11.068;2024-02-14T00:23:30;3.40;99.90
29917;DHT22;16786;49.466;11.068;2024-02-14T00:25:57;3.50;99.90
29917;DHT22;16786;49.466;11.068;2024-02-14T00:28:24;3.50;99.90
29917;DHT22;16786;49.466;11.068;2024-02-14T00:30:54;3.40;99.90
29917;DHT22;16786;49.466;11.068;2024-02-14T00:33:41;3.40;99.90
29917;DHT22;16786;49.466;11.068;2024-02-14T00:36:08;3.40;99.90
29917;DHT22;16786;49.466;11.068;2024-02-14T00:38:35;3.40;99.90
29917;DHT22;16786;49.466;11.068;2024-02-14T00:41:02;3.30;99.90
29917;DHT22;16786;49.466;11.068;2024-02-14T00:43:29;3.30;99.90
29917;DHT22;16786;49.466;11.068;2024-02-14T00:45:56;3.30;99.90
29917;DHT22;16786;49.466;11.068;2024-02-14T00:48:23;3.30;99.90
29917;DHT22;16786;49.466;11.068;2024-02-14T00:50:50;3.30;99.90
29917;DHT22;16786;49.466;11.068;2024-02-14T00:53:19;3.30;99.90
29917;DHT22;16786;49.466;11.068;2024-02-14T00:55:46;3.30;99.90
29917;DHT22;16786;49.466;11.068;2024-02-14T00:58:12;3.40;99.90
29917;DHT22;16786;49.466;11.068;2024-02-14T01:00:39;3.50;99.90
29917;DHT22;16786;49.466;11.068;2024-02-14T01:03:06;3.40;99.90
29917;DHT22;16786;49.466;11.068;2024-02-14T01:05:35;3.50;99.90
29917;DHT22;16786;49.466;11.068;2024-02-14T01:08:02;3.40;99.90
29917;DHT22;16786;49.466;11.068;2024-02-14T01:10:28;3.40;99.90
29917;DHT22;16786;49.466;11.068;2024-02-14T01:12:55;3.40;99.90
29917;DHT22;16786;49.466;11.068;2024-02-14T01:15:23;3.40;99.90
29917;DHT22;16786;49.466;11.068;2024-02-14T01:17:50;3.50;99.90
29917;DHT22;16786;49.466;11.068;2024-02-14T01:20:17;3.50;99.90
29917;DHT22;16786;49.466;11.068;2024-02-14T01:22:45;3.50;99.90
29917;DHT22;16786;49.466;11.068;2024-02-14T01:25:20;3.50;99.90
29917;DHT22;16786;49.466;11.068;2024-02-14T01:27:47;3.40;99.90
29917;DHT22;16786;49.466;11.068;2024-02-14T01:30:15;3.40;99.90
29917;DHT22;16786;49.466;11.068;2024-02-14T01:32:43;3.50;99.90
29917;DHT22;16786;49.466;11.068;2024-02-14T01:35:10;3.50;99.90
29917;DHT22;16786;49.466;11.068;2024-02-14T01:37:37;3.50;99.90
29917;DHT22;16786;49.466;11.068;2024-02-14T01:40:05;3.60;99.90
29917;DHT22;16786;49.466;11.068;2024-02-14T01:42:47;3.60;99.90
29917;DHT22;16786;49.466;11.068;2024-02-14T01:45:14;3.60;99.90
29917;DHT22;16786;49.466;11.068;2024-02-14T01:47:49;3.60;99.90
29917;DHT22;16786;49.466;11.068;2024-02-14T01:50:17;3.50;99.90
29917;DHT22;16786;49.466;11.068;2024-02-14T01:52:45;3.60;99.90
29917;DHT22;16786;49.466;11.068;2024-02-14T01:55:12;3.60;99.90
29917;DHT22;16786;49.466;11.068;2024-02-14T01:57:39;3.60;99.90
29917;DHT22;16786;49.466;11.068;2024-02-14T02:00:07;3.60;99.90
29917;DHT22;16786;49.466;11.068;2024-02-14T02:02:44;3.60;99.90
29917;DHT22;16786;49.466;11.068;2024-02-14T02:05:18;3.60;99.90
29917;DHT22;16786;49.466;11.068;2024-02-14T02:07:46;3.60;99.90
29917;DHT22;16786;49.466;11.068;2024-02-14T02:10:15;3.60;99.90
29917;DHT22;16786;49.466;11.068;2024-02-14T02:13:03;3.60;99.90
29917;DHT22;16786;49.466;11.068;2024-02-14T02:15:50;3.50;99.90
29917;DHT22;16786;49.466;11.068;2024-02-14T02:18:38;3.60;99.90
29917;DHT22;16786;49.466;11.068;2024-02-14T02:21:25;3.60;99.90
29917;DHT22;16786;49.466;11.068;2024-02-14T02:23:52;3.60;99.90
29917;DHT22;16786;49.466;11.068;2024-02-14T02:26:19;3.60;99.90
29917;DHT22;16786;49.466;11.068;2024-02-14T02:29:06;3.60;99.90
29917;DHT22;16786;49.466;11.068;2024-02-14T02:31:33;3.60;99.90
29917;DHT22;16786;49.466;11.068;2024-02-14T02:34:00;3.60;99.90
29917;DHT22;16786;49.466;11.068;2024-02-14T02:36:27;3.70;99.90
29917;DHT22;16786;49.466;11.068;2024-02-14T02:39:17;3.70;99.90
29917;DHT22;16786;49.466;11.068;2024-02-14T02:42:04;3.70;99.90
29917;DHT22;16786;49.466;11.068;2024-02-14T02:44:56;3.70;99.90
29917;DHT22;16786;49.466;11.068;2024-02-14T02:47:47;3.70;99.90
29917;DHT22;16786;49.466;11.068;2024-02-14T02:50:35;3.70;99.90
29917;DHT22;16786;49.466;11.068;2024-02-14T02:53:22;3.70;99.90
29917;DHT22;16786;49.466;11.068;2024-02-14T02:56:09;3.70;99.90
29917;DHT22;16786;49.466;11.068;2024-02-14T02:58:38;3.70;99.90
29917;DHT22;16786;49.466;11.068;2024-02-14T03:01:08;3.70;99.90
29917;DHT22;16786;49.466;11.068;2024-02-14T03:03:56;3.70;99.90
29917;DHT22;16786;49.466;11.068;2024-02-14T03:06:43;3.70;99.90
29917;DHT22;16786;49.466;11.068;2024-02-14T03:09:22;3.70;99.90
29917;DHT22;16786;49.466;11.068;2024-02-14T03:12:09;3.70;99.90
29917;DHT22;16786;49.466;11.068;2024-02-14T03:14:57;3.70;99.90
29917;DHT22;16786;49.466;11.068;2024-02-14T03:17:33;3.60;99.90
29917;DHT22;16786;49.466;11.068;2024-02-14T03:20:00;3.60;99.90
29917;DHT22;16786;49.466;11.068;2024-02-14T03:22:31;3.60;99.90
29917;DHT22;16786;49.466;11.068;2024-02-14T03:24:58;3.60;99.90
29917;DHT22;16786;49.466;11.068;2024-02-14T03:27:25;3.60;99.90
29917;DHT22;16786;49.466;11.068;2024-02-14T03:29:53;3.50;99.90
29917;DHT22;16786;49.466;11.068;2024-02-14T03:32:22;3.50;99.90
29917;DHT22;16786;49.466;11.068;2024-02-14T03:34:50;3.50;99.90
29917;DHT22;16786;49.466;11.068;2024-02-14T03:37:17;3.40;99.90
29917;DHT22;16786;49.466;11.068;2024-02-14T03:39:44;3.40;99.90
29917;DHT22;16786;49.466;11.068;2024-02-14T03:42:12;3.30;99.90
29917;DHT22;16786;49.466;11.068;2024-02-14T03:44:39;3.30;99.90
29917;DHT22;16786;49.466;11.068;2024-02-14T03:47:07;3.30;99.90
29917;DHT22;16786;49.466;11.068;2024-02-14T03:49:34;3.20;99.90
29917;DHT22;16786;49.466;11.068;2024-02-14T03:52:01;3.20;99.90
29917;DHT22;16786;49.466;11.068;2024-02-14T03:54:36;3.20;99.90
29917;DHT22;16786;49.466;11.068;2024-02-14T03:57:04;3.10;99.90
29917;DHT22;16786;49.466;11.068;2024-02-14T03:59:36;3.20;99.90
29917;DHT22;16786;49.466;11.068;2024-02-14T04:02:03;3.10;99.90
29917;DHT22;16786;49.466;11.068;2024-02-14T04:04:30;3.10;99.90
29917;DHT22;16786;49.466;11.068;2024-02-14T04:06:58;3.10;99.90
29917;DHT22;16786;49.466;11.068;2024-02-14T04:09:27;3.10;99.90
29917;DHT22;16786;49.466;11.068;2024-02-14T04:11:54;3.10;99.90
29917;DHT22;16786;49.466;11.068;2024-02-14T04:14:22;3.10;99.90
29917;DHT22;16786;49.466;11.068;2024-02-14T04:16:49;3.10;99.90
29917;DHT22;16786;49.466;11.068;2024-02-14T04:19:16;3.10;99.90
29917;DHT22;16786;49.466;11.068;2024-02-14T04:21:45;3.20;99.90
29917;DHT22;16786;49.466;11.068;2024-02-14T04:24:12;3.20;99.90
29917;DHT22;16786;49.466;11.068;2024-02-14T04:26:39;3.30;99.90
29917;DHT22;16786;49.466;11.068;2024-02-14T04:29:08;3.40;99.90
29917;DHT22;16786;49.466;11.068;2024-02-14T04:31:35;3.50;99.90
29917;DHT22;16786;49.466;11.068;2024-02-14T04:34:04;3.50;99.90
29917;DHT22;16786;49.466;11.068;2024-02-14T04:36:34;3.60;99.90
29917;DHT22;16786;49.466;11.068;2024-02-14T04:39:02;3.70;99.90
29917;DHT22;16786;49.466;11.068;2024-02-14T04:41:30;3.70;99.90
29917;DHT22;16786;49.466;11.068;2024-02-14T04:43:57;3.80;99.90
29917;DHT22;16786;49.466;11.068;2024-02-14T04:46:24;3.90;99.90
29917;DHT22;16786;49.466;11.068;2024-02-14T04:48:51;3.90;99.90
29917;DHT22;16786;49.466;11.068;2024-02-14T04:51:18;3.90;99.90
29917;DHT22;16786;49.466;11.068;2024-02-14T04:53:45;3.90;99.90
29917;DHT22;16786;49.466;11.068;2024-02-14T04:56:12;3.90;99.90
29917;DHT22;16786;49.466;11.068;2024-02-14T04:58:39;3.90;99.90
29917;DHT22;16786;49.466;11.068;2024-02-14T05:01:06;4.00;99.90
29917;DHT22;16786;49.466;11.068;2024-02-14T05:03:34;4.00;99.90
29917;DHT22;16786;49.466;11.068;2024-02-14T05:06:01;4.00;99.90
29917;DHT22;16786;49.466;11.068;2024-02-14T05:08:29;4.00;99.90
29917;DHT22;16786;49.466;11.068;2024-02-14T05:10:56;4.10;99.90
29917;DHT22;16786;49.466;11.068;2024-02-14T05:13:23;4.10;99.90
29917;DHT22;16786;49.466;11.068;2024-02-14T05:15:50;4.10;99.90
29917;DHT22;16786;49.466;11.068;2024-02-14T05:18:18;4.10;99.90
29917;DHT22;16786;49.466;11.068;2024-02-14T05:20:45;4.10;99.90
29917;DHT22;16786;49.466;11.068;2024-02-14T05:23:13;4.10;99.90
29917;DHT22;16786;49.466;11.068;2024-02-14T05:25:40;4.20;99.90
29917;DHT22;16786;49.466;11.068;2024-02-14T05:28:07;4.10;99.90
29917;DHT22;16786;49.466;11.068;2024-02-14T05:30:34;4.20;99.90
29917;DHT22;16786;49.466;11.068;2024-02-14T05:33:13;4.20;99.90
29917;DHT22;16786;49.466;11.068;2024-02-14T05:35:40;4.20;99.90
29917;DHT22;16786;49.466;11.068;2024-02-14T05:38:07;4.30;99.90
29917;DHT22;16786;49.466;11.068;2024-02-14T05:40:35;4.30;99.90
29917;DHT22;16786;49.466;11.068;2024-02-14T05:43:04;4.40;99.90
29917;DHT22;16786;49.466;11.068;2024-02-14T05:45:31;4.40;99.90
29917;DHT22;16786;49.466;11.068;2024-02-14T05:47:58;4.40;99.90
29917;DHT22;16786;49.466;11.068;2024-02-14T05:50:25;4.50;99.90
29917;DHT22;16786;49.466;11.068;2024-02-14T05:52:52;4.50;99.90
29917;DHT22;16786;49.466;11.068;2024-02-14T05:55:19;4.50;99.90
29917;DHT22;16786;49.466;11.068;2024-02-14T05:57:51;4.60;99.90
29917;DHT22;16786;49.466;11.068;2024-02-14T06:00:21;4.60;99.90
29917;DHT22;16786;49.466;11.068;2024-02-14T06:02:51;4.60;99.90
29917;DHT22;16786;49.466;11.068;2024-02-14T06:05:18;4.70;99.90
29917;DHT22;16786;49.466;11.068;2024-02-14T06:07:45;4.70;99.90
29917;DHT22;16786;49.466;11.068;2024-02-14T06:10:12;4.80;99.90
29917;DHT22;16786;49.466;11.068;2024-02-14T06:12:39;4.80;99.90
29917;DHT22;16786;49.466;11.068;2024-02-14T06:15:07;4.80;99.90
29917;DHT22;16786;49.466;11.068;2024-02-14T06:17:35;4.80;99.90
29917;DHT22;16786;49.466;11.068;2024-02-14T06:20:02;4.80;99.90
29917;DHT22;16786;49.466;11.068;2024-02-14T06:22:34;4.80;99.90
29917;DHT22;16786;49.466;11.068;2024-02-14T06:25:07;4.90;99.90
29917;DHT22;16786;49.466;11.068;2024-02-14T06:27:46;4.90;99.90
29917;DHT22;16786;49.466;11.068;2024-02-14T06:30:13;5.00;99.90
29917;DHT22;16786;49.466;11.068;2024-02-14T06:32:40;4.90;99.90
29917;DHT22;16786;49.466;11.068;2024-02-14T06:35:07;5.00;99.90
29917;DHT22;16786;49.466;11.068;2024-02-14T06:37:35;5.00;99.90
29917;DHT22;16786;49.466;11.068;2024-02-14T06:40:14;5.00;99.90
29917;DHT22;16786;49.466;11.068;2024-02-14T06:42:41;5.00;99.90
29917;DHT22;16786;49.466;11.068;2024-02-14T06:45:08;5.10;99.90
29917;DHT22;16786;49.466;11.068;2024-02-14T06:47:36;5.10;99.90
29917;DHT22;16786;49.466;11.068;2024-02-14T06:50:04;5.10;99.90
29917;DHT22;16786;49.466;11.068;2024-02-14T06:52:32;5.20;99.90
29917;DHT22;16786;49.466;11.068;2024-02-14T06:54:59;5.20;99.90
29917;DHT22;16786;49.466;11.068;2024-02-14T06:57:26;5.20;99.90
29917;DHT22;16786;49.466;11.068;2024-02-14T06:59:53;5.30;99.90
29917;DHT22;16786;49.466;11.068;2024-02-14T07:02:20;5.30;99.90
29917;DHT22;16786;49.466;11.068;2024-02-14T07:04:48;5.40;99.90
29917;DHT22;16786;49.466;11.068;2024-02-14T07:07:15;5.40;99.90
29917;DHT22;16786;49.466;11.068;2024-02-14T07:09:42;5.50;99.90
29917;DHT22;16786;49.466;11.068;2024-02-14T07:12:09;5.50;99.90
29917;DHT22;16786;49.466;11.068;2024-02-14T07:14:37;5.50;99.90
29917;DHT22;16786;49.466;11.068;2024-02-14T07:17:04;5.50;99.90
29917;DHT22;16786;49.466;11.068;2024-02-14T07:19:31;5.60;99.90
29917;DHT22;16786;49.466;11.068;2024-02-14T07:21:57;5.70;99.90
29917;DHT22;16786;49.466;11.068;2024-02-14T07:24:24;5.80;99.90
29917;DHT22;16786;49.466;11.068;2024-02-14T07:26:51;5.80;99.90
29917;DHT22;16786;49.466;11.068;2024-02-14T07:29:18;5.80;99.90
29917;DHT22;16786;49.466;11.068;2024-02-14T07:31:45;5.80;99.90
29917;DHT22;16786;49.466;11.068;2024-02-14T07:34:12;5.80;99.90
29917;DHT22;16786;49.466;11.068;2024-02-14T07:36:39;5.80;99.90
29917;DHT22;16786;49.466;11.068;2024-02-14T07:39:08;5.90;99.90
29917;DHT22;16786;49.466;11.068;2024-02-14T07:41:35;5.90;99.90
29917;DHT22;16786;49.466;11.068;2024-02-14T07:44:02;6.00;99.90
29917;DHT22;16786;49.466;11.068;2024-02-14T07:46:29;6.00;99.90
29917;DHT22;16786;49.466;11.068;2024-02-14T07:48:58;6.10;99.90
29917;DHT22;16786;49.466;11.068;2024-02-14T07:51:26;6.30;99.90
29917;DHT22;16786;49.466;11.068;2024-02-14T07:53:54;6.30;99.90
29917;DHT22;16786;49.466;11.068;2024-02-14T07:56:21;6.30;99.90
29917;DHT22;16786;49.466;11.068;2024-02-14T07:58:49;6.40;99.90
29917;DHT22;16786;49.466;11.068;2024-02-14T08:01:16;6.40;99.90
29917;DHT22;16786;49.466;11.068;2024-02-14T08:03:43;6.50;99.90
29917;DHT22;16786;49.466;11.068;2024-02-14T08:06:13;6.60;99.90
29917;DHT22;16786;49.466;11.068;2024-02-14T08:08:40;6.70;99.90
29917;DHT22;16786;49.466;11.068;2024-02-14T08:11:07;6.70;99.90
29917;DHT22;16786;49.466;11.068;2024-02-14T08:13:34;6.90;99.90
29917;DHT22;16786;49.466;11.068;2024-02-14T08:16:01;6.90;99.90
29917;DHT22;16786;49.466;11.068;2024-02-14T08:18:28;6.90;99.90
29917;DHT22;16786;49.466;11.068;2024-02-14T08:20:55;7.00;99.90
29917;DHT22;16786;49.466;11.068;2024-02-14T08:23:23;6.90;99.90
29917;DHT22;16786;49.466;11.068;2024-02-14T08:25:49;6.80;99.90
29917;DHT22;16786;49.466;11.068;2024-02-14T08:28:16;6.70;99.90
29917;DHT22;16786;49.466;11.068;2024-02-14T08:30:47;6.70;99.90
29917;DHT22;16786;49.466;11.068;2024-02-14T08:33:14;6.80;99.90
29917;DHT22;16786;49.466;11.068;2024-02-14T08:35:42;6.70;99.90
29917;DHT22;16786;49.466;11.068;2024-02-14T08:38:10;6.70;99.90
29917;DHT22;16786;49.466;11.068;2024-02-14T08:40:37;6.70;99.90
29917;DHT22;16786;49.466;11.068;2024-02-14T08:43:04;6.60;99.90
29917;DHT22;16786;49.466;11.068;2024-02-14T08:45:31;6.70;99.90
29917;DHT22;16786;49.466;11.068;2024-02-14T08:47:59;6.80;99.90
29917;DHT22;16786;49.466;11.068;2024-02-14T08:50:26;6.70;99.90
29917;DHT22;16786;49.466;11.068;2024-02-14T08:52:53;6.80;99.90
29917;DHT22;16786;49.466;11.068;2024-02-14T08:55:20;6.90;99.90
29917;DHT22;16786;49.466;11.068;2024-02-14T08:57:47;7.00;99.90
29917;DHT22;16786;49.466;11.068;2024-02-14T09:00:17;6.90;99.90
29917;DHT22;16786;49.466;11.068;2024-02-14T09:02:47;7.00;99.90
29917;DHT22;16786;49.466;11.068;2024-02-14T09:05:14;7.00;99.90
29917;DHT22;16786;49.466;11.068;2024-02-14T09:07:43;7.20;99.90
29917;DHT22;16786;49.466;11.068;2024-02-14T09:10:11;7.20;99.90
29917;DHT22;16786;49.466;11.068;2024-02-14T09:12:39;7.30;99.90
29917;DHT22;16786;49.466;11.068;2024-02-14T09:15:08;7.30;99.90
29917;DHT22;16786;49.466;11.068;2024-02-14T09:17:35;7.40;99.90
29917;DHT22;16786;49.466;11.068;2024-02-14T09:20:03;7.60;99.90
29917;DHT22;16786;49.466;11.068;2024-02-14T09:22:30;7.70;99.90
29917;DHT22;16786;49.466;11.068;2024-02-14T09:24:57;7.70;99.90
29917;DHT22;16786;49.466;11.068;2024-02-14T09:27:24;7.70;99.90
29917;DHT22;16786;49.466;11.068;2024-02-14T09:29:51;7.80;99.90
29917;DHT22;16786;49.466;11.068;2024-02-14T09:32:18;8.10;99.90
29917;DHT22;16786;49.466;11.068;2024-02-14T09:34:45;8.20;99.90
29917;DHT22;16786;49.466;11.068;2024-02-14T09:37:13;8.30;99.90
29917;DHT22;16786;49.466;11.068;2024-02-14T09:39:40;8.50;99.90
29917;DHT22;16786;49.466;11.068;2024-02-14T09:42:13;8.50;99.90
29917;DHT22;16786;49.466;11.068;2024-02-14T09:44:41;8.50;99.90
29917;DHT22;16786;49.466;11.068;2024-02-14T09:47:09;8.70;99.90
29917;DHT22;16786;49.466;11.068;2024-02-14T09:49:37;8.90;99.90
29917;DHT22;16786;49.466;11.068;2024-02-14T09:52:06;9.10;99.90
29917;DHT22;16786;49.466;11.068;2024-02-14T09:54:36;9.40;99.90
29917;DHT22;16786;49.466;11.068;2024-02-14T09:57:06;9.40;99.90
29917;DHT22;16786;49.466;11.068;2024-02-14T09:59:33;9.50;99.90
29917;DHT22;16786;49.466;11.068;2024-02-14T10:02:01;9.60;99.90
29917;DHT22;16786;49.466;11.068;2024-02-14T10:04:28;9.70;99.90
29917;DHT22;16786;49.466;11.068;2024-02-14T10:06:56;9.70;99.90
29917;DHT22;16786;49.466;11.068;2024-02-14T10:09:25;9.90;99.90
29917;DHT22;16786;49.466;11.068;2024-02-14T10:11:52;10.00;99.90
29917;DHT22;16786;49.466;11.068;2024-02-14T10:14:19;9.80;99.90
29917;DHT22;16786;49.466;11.068;2024-02-14T10:16:46;9.70;99.90
29917;DHT22;16786;49.466;11.068;2024-02-14T10:19:17;9.80;99.90
29917;DHT22;16786;49.466;11.068;2024-02-14T10:22:04;9.60;99.90
29917;DHT22;16786;49.466;11.068;2024-02-14T10:24:32;9.60;99.90
29917;DHT22;16786;49.466;11.068;2024-02-14T10:26:59;9.60;99.90
29917;DHT22;16786;49.466;11.068;2024-02-14T10:29:28;9.80;99.90
29917;DHT22;16786;49.466;11.068;2024-02-14T10:31:55;9.80;99.90
29917;DHT22;16786;49.466;11.068;2024-02-14T10:34:24;10.00;99.90
29917;DHT22;16786;49.466;11.068;2024-02-14T10:36:53;10.10;99.90
29917;DHT22;16786;49.466;11.068;2024-02-14T10:39:25;10.20;99.90
29917;DHT22;16786;49.466;11.068;2024-02-14T10:41:53;10.50;99.90
29917;DHT22;16786;49.466;11.068;2024-02-14T10:44:20;10.90;99.90
29917;DHT22;16786;49.466;11.068;2024-02-14T10:46:49;11.50;99.90
29917;DHT22;16786;49.466;11.068;2024-02-14T10:49:20;11.30;99.90
29917;DHT22;16786;49.466;11.068;2024-02-14T10:51:48;11.60;99.90
29917;DHT22;16786;49.466;11.068;2024-02-14T10:54:18;11.60;99.90
29917;DHT22;16786;49.466;11.068;2024-02-14T10:56:49;11.60;99.90
29917;DHT22;16786;49.466;11.068;2024-02-14T10:59:20;11.40;99.90
29917;DHT22;16786;49.466;11.068;2024-02-14T11:01:48;11.30;99.90
29917;DHT22;16786;49.466;11.068;2024-02-14T11:04:16;11.20;99.90
29917;DHT22;16786;49.466;11.068;2024-02-14T11:06:47;11.20;99.90
29917;DHT22;16786;49.466;11.068;2024-02-14T11:09:14;11.00;99.90
29917;DHT22;16786;49.466;11.068;2024-02-14T11:11:45;11.00;99.90
29917;DHT22;16786;49.466;11.068;2024-02-14T11:14:18;10.90;99.90
29917;DHT22;16786;49.466;11.068;2024-02-14T11:16:52;10.90;99.90
29917;DHT22;16786;49.466;11.068;2024-02-14T11:19:19;10.80;99.90
29917;DHT22;16786;49.466;11.068;2024-02-14T11:21:47;10.80;99.90
29917;DHT22;16786;49.466;11.068;2024-02-14T11:24:16;10.60;99.90
29917;DHT22;16786;49.466;11.068;2024-02-14T11:26:50;10.40;99.90
29917;DHT22;16786;49.466;11.068;2024-02-14T11:29:19;10.40;99.90
29917;DHT22;16786;49.466;11.068;2024-02-14T11:31:57;10.40;99.90
29917;DHT22;16786;49.466;11.068;2024-02-14T11:34:24;10.40;99.90
29917;DHT22;16786;49.466;11.068;2024-02-14T11:36:51;10.50;99.90
29917;DHT22;16786;49.466;11.068;2024-02-14T11:39:20;10.70;99.90
29917;DHT22;16786;49.466;11.068;2024-02-14T11:41:47;11.10;99.90
29917;DHT22;16786;49.466;11.068;2024-02-14T11:44:14;11.40;99.90
29917;DHT22;16786;49.466;11.068;2024-02-14T11:46:41;11.40;99.90
29917;DHT22;16786;49.466;11.068;2024-02-14T11:49:08;11.40;99.90
29917;DHT22;16786;49.466;11.068;2024-02-14T11:51:36;11.70;99.90
29917;DHT22;16786;49.466;11.068;2024-02-14T11:54:05;11.50;99.90
29917;DHT22;16786;49.466;11.068;2024-02-14T11:56:36;11.60;99.90
29917;DHT22;16786;49.466;11.068;2024-02-14T11:59:08;11.80;99.90
29917;DHT22;16786;49.466;11.068;2024-02-14T12:01:37;11.80;99.90
29917;DHT22;16786;49.466;11.068;2024-02-14T12:04:06;12.20;99.90
29917;DHT22;16786;49.466;11.068;2024-02-14T12:06:36;12.40;99.90
29917;DHT22;16786;49.466;11.068;2024-02-14T12:09:05;12.40;99.90
29917;DHT22;16786;49.466;11.068;2024-02-14T12:11:37;12.60;99.90
29917;DHT22;16786;49.466;11.068;2024-02-14T12:14:08;12.40;99.90
29917;DHT22;16786;49.466;11.068;2024-02-14T12:16:37;12.20;99.90
29917;DHT22;16786;49.466;11.068;2024-02-14T12:19:08;12.00;99.90
29917;DHT22;16786;49.466;11.068;2024-02-14T12:21:38;11.70;99.90
29917;DHT22;16786;49.466;11.068;2024-02-14T12:24:09;11.60;99.90
29917;DHT22;16786;49.466;11.068;2024-02-14T12:26:38;11.60;99.90
29917;DHT22;16786;49.466;11.068;2024-02-14T12:29:06;11.40;99.90
29917;DHT22;16786;49.466;11.068;2024-02-14T12:31:34;11.40;99.90
29917;DHT22;16786;49.466;11.068;2024-02-14T12:34:03;11.40;99.90
29917;DHT22;16786;49.466;11.068;2024-02-14T12:36:33;11.40;99.90
29917;DHT22;16786;49.466;11.068;2024-02-14T12:39:01;11.40;99.90
29917;DHT22;16786;49.466;11.068;2024-02-14T12:41:31;11.50;99.90
29917;DHT22;16786;49.466;11.068;2024-02-14T12:43:59;11.50;99.90
29917;DHT22;16786;49.466;11.068;2024-02-14T12:46:27;11.40;99.90
29917;DHT22;16786;49.466;11.068;2024-02-14T12:48:54;11.40;99.90
29917;DHT22;16786;49.466;11.068;2024-02-14T12:51:22;11.50;99.90
29917;DHT22;16786;49.466;11.068;2024-02-14T12:53:49;11.60;99.90
29917;DHT22;16786;49.466;11.068;2024-02-14T12:56:16;11.60;99.90
29917;DHT22;16786;49.466;11.068;2024-02-14T12:58:43;11.60;99.90
29917;DHT22;16786;49.466;11.068;2024-02-14T13:01:11;11.60;99.90
29917;DHT22;16786;49.466;11.068;2024-02-14T13:03:39;11.50;99.90
29917;DHT22;16786;49.466;11.068;2024-02-14T13:06:06;11.40;99.90
29917;DHT22;16786;49.466;11.068;2024-02-14T13:08:33;11.50;99.90
29917;DHT22;16786;49.466;11.068;2024-02-14T13:11:00;11.50;99.90
29917;DHT22;16786;49.466;11.068;2024-02-14T13:13:27;11.40;99.90
29917;DHT22;16786;49.466;11.068;2024-02-14T13:15:56;11.40;99.90
29917;DHT22;16786;49.466;11.068;2024-02-14T13:18:23;11.40;99.90
29917;DHT22;16786;49.466;11.068;2024-02-14T13:20:51;11.40;99.90
29917;DHT22;16786;49.466;11.068;2024-02-14T13:23:26;11.50;99.90
29917;DHT22;16786;49.466;11.068;2024-02-14T13:25:53;11.50;99.90
29917;DHT22;16786;49.466;11.068;2024-02-14T13:28:20;11.60;99.90
29917;DHT22;16786;49.466;11.068;2024-02-14T13:30:47;11.50;99.90
29917;DHT22;16786;49.466;11.068;2024-02-14T13:33:14;11.60;99.90
29917;DHT22;16786;49.466;11.068;2024-02-14T13:35:41;11.60;99.90
29917;DHT22;16786;49.466;11.068;2024-02-14T13:38:08;11.60;99.90
29917;DHT22;16786;49.466;11.068;2024-02-14T13:40:37;11.60;99.90
29917;DHT22;16786;49.466;11.068;2024-02-14T13:43:04;11.60;99.90
29917;DHT22;16786;49.466;11.068;2024-02-14T13:45:42;11.60;99.90
29917;DHT22;16786;49.466;11.068;2024-02-14T13:48:10;11.60;99.90
29917;DHT22;16786;49.466;11.068;2024-02-14T13:50:38;11.60;99.90
29917;DHT22;16786;49.466;11.068;2024-02-14T13:53:08;11.60;99.90
29917;DHT22;16786;49.466;11.068;2024-02-14T13:55:36;11.50;99.90
29917;DHT22;16786;49.466;11.068;2024-02-14T13:58:03;11.40;99.90
29917;DHT22;16786;49.466;11.068;2024-02-14T14:00:30;11.40;99.90
29917;DHT22;16786;49.466;11.068;2024-02-14T14:02:57;11.40;99.90
29917;DHT22;16786;49.466;11.068;2024-02-14T14:05:24;11.40;99.90
29917;DHT22;16786;49.466;11.068;2024-02-14T14:07:51;11.40;99.90
29917;DHT22;16786;49.466;11.068;2024-02-14T14:10:26;11.40;99.90
29917;DHT22;16786;49.466;11.068;2024-02-14T14:12:55;11.50;99.90
29917;DHT22;16786;49.466;11.068;2024-02-14T14:15:22;11.40;99.90
29917;DHT22;16786;49.466;11.068;2024-02-14T14:17:50;11.30;99.90
29917;DHT22;16786;49.466;11.068;2024-02-14T14:20:19;11.30;99.90
29917;DHT22;16786;49.466;11.068;2024-02-14T14:22:47;11.40;99.90
29917;DHT22;16786;49.466;11.068;2024-02-14T14:25:14;11.40;99.90
29917;DHT22;16786;49.466;11.068;2024-02-14T14:27:41;11.50;99.90
29917;DHT22;16786;49.466;11.068;2024-02-14T14:30:10;11.40;99.90
29917;DHT22;16786;49.466;11.068;2024-02-14T14:32:38;11.40;99.90
29917;DHT22;16786;49.466;11.068;2024-02-14T14:35:07;11.40;99.90
29917;DHT22;16786;49.466;11.068;2024-02-14T14:37:34;11.50;99.90
29917;DHT22;16786;49.466;11.068;2024-02-14T14:40:01;11.40;99.90
29917;DHT22;16786;49.466;11.068;2024-02-14T14:42:31;11.30;99.90
29917;DHT22;16786;49.466;11.068;2024-02-14T14:44:58;11.30;99.90
29917;DHT22;16786;49.466;11.068;2024-02-14T14:47:25;11.30;99.90
29917;DHT22;16786;49.466;11.068;2024-02-14T14:49:52;11.40;99.90
29917;DHT22;16786;49.466;11.068;2024-02-14T14:52:19;11.30;99.90
29917;DHT22;16786;49.466;11.068;2024-02-14T14:54:46;11.30;99.90
29917;DHT22;16786;49.466;11.068;2024-02-14T14:57:13;11.20;99.90
29917;DHT22;16786;49.466;11.068;2024-02-14T14:59:42;11.30;99.90
29917;DHT22;16786;49.466;11.068;2024-02-14T15:02:10;11.30;99.90
29917;DHT22;16786;49.466;11.068;2024-02-14T15:04:37;11.20;99.90
29917;DHT22;16786;49.466;11.068;2024-02-14T15:07:07;11.30;99.90
29917;DHT22;16786;49.466;11.068;2024-02-14T15:09:34;11.20;99.90
29917;DHT22;16786;49.466;11.068;2024-02-14T15:12:04;11.10;99.90
29917;DHT22;16786;49.466;11.068;2024-02-14T15:14:34;11.00;99.90
29917;DHT22;16786;49.466;11.068;2024-02-14T15:17:01;11.00;99.90
29917;DHT22;16786;49.466;11.068;2024-02-14T15:19:30;11.10;99.90
29917;DHT22;16786;49.466;11.068;2024-02-14T15:21:57;11.10;99.90
29917;DHT22;16786;49.466;11.068;2024-02-14T15:24:29;11.10;99.90
29917;DHT22;16786;49.466;11.068;2024-02-14T15:26:56;11.10;99.90
29917;DHT22;16786;49.466;11.068;2024-02-14T15:29:28;11.10;99.90
29917;DHT22;16786;49.466;11.068;2024-02-14T15:32:15;11.10;99.90
29917;DHT22;16786;49.466;11.068;2024-02-14T15:35:01;11.00;99.90
29917;DHT22;16786;49.466;11.068;2024-02-14T15:37:31;11.00;99.90